sensor_id;sensor_type;location;lat;lon;timestamp;temperature;humidity
71754;DHT22;59593;51.716;7.016;2023-05-10T00:00:23;14.50;99.90
71754;DHT22;59593;51.716;7.016;2023-05-10T00:02:49;14.40;99.90
71754;DHT22;59593;51.716;7.016;2023-05-10T00:05:15;14.50;99.90
71754;DHT22;59593;51.716;7.016;2023-05-10T00:07:40;14.40;99.90
71754;DHT22;59593;51.716;7.016;2023-05-10T00:10:10;14.40;99.90
71754;DHT22;59593;51.716;7.016;2023-05-10T00:12:36;14.40;99.90
71754;DHT22;59593;51.716;7.016;2023-05-10T00:15:02;14.30;99.90
71754;DHT22;59593;51.716;7.016;2023-05-10T00:17:28;14.30;99.90
71754;DHT22;59593;51.716;7.016;2023-05-10T00:19:54;14.40;99.90
71754;DHT22;59593;51.716;7.016;2023-05-10T00:22:19;14.30;99.90
71754;DHT22;59593;51.716;7.016;2023-05-10T00:24:45;14.30;99.90
71754;DHT22;59593;51.716;7.016;2023-05-10T00:27:11;14.20;99.90
71754;DHT22;59593;51.716;7.016;2023-05-10T00:29:36;14.20;99.90
71754;DHT22;59593;51.716;7.016;2023-05-10T00:32:02;14.30;99.90
71754;DHT22;59593;51.716;7.016;2023-05-10T00:34:27;14.30;99.90
71754;DHT22;59593;51.716;7.016;2023-05-10T00:36:53;14.30;99.90
71754;DHT22;59593;51.716;7.016;2023-05-10T00:39:19;14.30;99.90
71754;DHT22;59593;51.716;7.016;2023-05-10T00:41:44;14.20;99.90
71754;DHT22;59593;51.716;7.016;2023-05-10T00:44:10;14.10;99.90
71754;DHT22;59593;51.716;7.016;2023-05-10T00:46:36;14.20;99.90
71754;DHT22;59593;51.716;7.016;2023-05-10T00:49:02;14.10;99.90
71754;DHT22;59593;51.716;7.016;2023-05-10T00:51:27;14.30;99.90
71754;DHT22;59593;51.716;7.016;2023-05-10T00:53:53;14.30;99.90
71754;DHT22;59593;51.716;7.016;2023-05-10T00:56:19;14.10;99.90
71754;DHT22;59593;51.716;7.016;2023-05-10T00:58:48;14.00;99.90
71754;DHT22;59593;51.716;7.016;2023-05-10T01:01:14;13.80;99.90
71754;DHT22;59593;51.716;7.016;2023-05-10T01:03:40;13.80;99.90
71754;DHT22;59593;51.716;7.016;2023-05-10T01:06:07;13.60;99.90
71754;DHT22;59593;51.716;7.016;2023-05-10T01:08:33;13.70;99.90
71754;DHT22;59593;51.716;7.016;2023-05-10T01:10:59;13.70;99.90
71754;DHT22;59593;51.716;7.016;2023-05-10T01:13:37;13.60;99.90
71754;DHT22;59593;51.716;7.016;2023-05-10T01:16:04;13.50;99.90
71754;DHT22;59593;51.716;7.016;2023-05-10T01:18:34;13.60;99.90
71754;DHT22;59593;51.716;7.016;2023-05-10T01:21:21;13.50;99.90
71754;DHT22;59593;51.716;7.016;2023-05-10T01:41:19;13.30;99.90
71754;DHT22;59593;51.716;7.016;2023-05-10T01:44:06;13.40;99.90
71754;DHT22;59593;51.716;7.016;2023-05-10T01:46:36;13.30;99.90
71754;DHT22;59593;51.716;7.016;2023-05-10T01:49:07;13.20;99.90
71754;DHT22;59593;51.716;7.016;2023-05-10T01:51:45;13.40;99.90
71754;DHT22;59593;51.716;7.016;2023-05-10T01:54:13;13.50;99.90
71754;DHT22;59593;51.716;7.016;2023-05-10T01:56:40;13.60;99.90
71754;DHT22;59593;51.716;7.016;2023-05-10T01:59:12;13.60;99.90
71754;DHT22;59593;51.716;7.016;2023-05-10T02:01:40;13.60;99.90
71754;DHT22;59593;51.716;7.016;2023-05-10T02:04:07;13.60;99.90
71754;DHT22;59593;51.716;7.016;2023-05-10T02:06:34;13.50;99.90
71754;DHT22;59593;51.716;7.016;2023-05-10T02:09:01;13.40;99.90
71754;DHT22;59593;51.716;7.016;2023-05-10T02:11:29;13.30;99.90
71754;DHT22;59593;51.716;7.016;2023-05-10T02:13:55;13.50;99.90
71754;DHT22;59593;51.716;7.016;2023-05-10T02:16:24;13.40;99.90
71754;DHT22;59593;51.716;7.016;2023-05-10T02:18:53;13.30;99.90
71754;DHT22;59593;51.716;7.016;2023-05-10T02:21:20;13.40;99.90
71754;DHT22;59593;51.716;7.016;2023-05-10T02:23:48;13.50;99.90
71754;DHT22;59593;51.716;7.016;2023-05-10T02:26:16;13.50;99.90
71754;DHT22;59593;51.716;7.016;2023-05-10T02:28:42;13.40;99.90
71754;DHT22;59593;51.716;7.016;2023-05-10T02:31:09;13.30;99.90
71754;DHT22;59593;51.716;7.016;2023-05-10T02:33:38;13.30;99.90
71754;DHT22;59593;51.716;7.016;2023-05-10T02:36:07;13.30;99.90
71754;DHT22;59593;51.716;7.016;2023-05-10T02:38:33;13.30;99.90
71754;DHT22;59593;51.716;7.016;2023-05-10T02:41:01;13.30;99.90
71754;DHT22;59593;51.716;7.016;2023-05-10T02:43:30;13.40;99.90
71754;DHT22;59593;51.716;7.016;2023-05-10T02:45:56;13.40;99.90
71754;DHT22;59593;51.716;7.016;2023-05-10T02:48:22;13.40;99.90
71754;DHT22;59593;51.716;7.016;2023-05-10T02:50:50;13.30;99.90
71754;DHT22;59593;51.716;7.016;2023-05-10T02:53:21;13.40;99.90
71754;DHT22;59593;51.716;7.016;2023-05-10T02:55:50;13.40;99.90
71754;DHT22;59593;51.716;7.016;2023-05-10T02:58:17;13.40;99.90
71754;DHT22;59593;51.716;7.016;2023-05-10T03:00:44;13.50;99.90
71754;DHT22;59593;51.716;7.016;2023-05-10T03:03:10;13.50;99.90
71754;DHT22;59593;51.716;7.016;2023-05-10T03:05:36;13.50;99.90
71754;DHT22;59593;51.716;7.016;2023-05-10T03:08:02;13.50;99.90
71754;DHT22;59593;51.716;7.016;2023-05-10T03:10:30;13.50;99.90
71754;DHT22;59593;51.716;7.016;2023-05-10T03:16:02;13.60;99.90
71754;DHT22;59593;51.716;7.016;2023-05-10T03:18:50;13.50;99.90
71754;DHT22;59593;51.716;7.016;2023-05-10T03:21:22;13.50;99.90
71754;DHT22;59593;51.716;7.016;2023-05-10T03:24:06;13.40;99.90
71754;DHT22;59593;51.716;7.016;2023-05-10T03:26:33;13.40;99.90
71754;DHT22;59593;51.716;7.016;2023-05-10T03:28:59;13.50;99.90
71754;DHT22;59593;51.716;7.016;2023-05-10T03:31:25;13.50;99.90
71754;DHT22;59593;51.716;7.016;2023-05-10T03:33:52;13.50;99.90
71754;DHT22;59593;51.716;7.016;2023-05-10T03:36:19;13.50;99.90
71754;DHT22;59593;51.716;7.016;2023-05-10T03:38:45;13.50;99.90
71754;DHT22;59593;51.716;7.016;2023-05-10T03:41:10;13.60;99.90
71754;DHT22;59593;51.716;7.016;2023-05-10T03:43:39;13.60;99.90
71754;DHT22;59593;51.716;7.016;2023-05-10T03:46:05;13.50;99.90
71754;DHT22;59593;51.716;7.016;2023-05-10T03:48:33;13.60;99.90
71754;DHT22;59593;51.716;7.016;2023-05-10T03:50:59;13.50;99.90
71754;DHT22;59593;51.716;7.016;2023-05-10T03:53:24;13.50;99.90
71754;DHT22;59593;51.716;7.016;2023-05-10T03:55:50;13.50;99.90
71754;DHT22;59593;51.716;7.016;2023-05-10T03:58:15;13.60;99.90
71754;DHT22;59593;51.716;7.016;2023-05-10T04:00:41;13.60;99.90
71754;DHT22;59593;51.716;7.016;2023-05-10T04:03:12;13.60;99.90
71754;DHT22;59593;51.716;7.016;2023-05-10T04:05:38;13.60;99.90
71754;DHT22;59593;51.716;7.016;2023-05-10T04:08:04;13.60;99.90
71754;DHT22;59593;51.716;7.016;2023-05-10T04:10:30;13.60;99.90
71754;DHT22;59593;51.716;7.016;2023-05-10T04:12:56;13.60;99.90
71754;DHT22;59593;51.716;7.016;2023-05-10T04:15:22;13.50;99.90
71754;DHT22;59593;51.716;7.016;2023-05-10T04:17:47;13.60;99.90
71754;DHT22;59593;51.716;7.016;2023-05-10T04:20:13;13.60;99.90
71754;DHT22;59593;51.716;7.016;2023-05-10T04:22:39;13.60;99.90
71754;DHT22;59593;51.716;7.016;2023-05-10T04:25:05;13.70;99.90
71754;DHT22;59593;51.716;7.016;2023-05-10T04:27:31;13.70;99.90
71754;DHT22;59593;51.716;7.016;2023-05-10T04:29:57;13.60;99.90
71754;DHT22;59593;51.716;7.016;2023-05-10T04:32:23;13.60;99.90
71754;DHT22;59593;51.716;7.016;2023-05-10T04:34:48;13.60;99.90
71754;DHT22;59593;51.716;7.016;2023-05-10T04:37:14;13.70;99.90
71754;DHT22;59593;51.716;7.016;2023-05-10T04:39:40;13.80;99.90
71754;DHT22;59593;51.716;7.016;2023-05-10T04:42:05;13.70;99.90
71754;DHT22;59593;51.716;7.016;2023-05-10T04:44:32;13.80;99.90
71754;DHT22;59593;51.716;7.016;2023-05-10T04:46:58;13.70;99.90
71754;DHT22;59593;51.716;7.016;2023-05-10T04:49:23;13.80;99.90
71754;DHT22;59593;51.716;7.016;2023-05-10T04:51:49;13.80;99.90
71754;DHT22;59593;51.716;7.016;2023-05-10T04:54:15;13.70;99.90
71754;DHT22;59593;51.716;7.016;2023-05-10T04:56:40;13.60;99.90
71754;DHT22;59593;51.716;7.016;2023-05-10T04:59:06;13.80;99.90
71754;DHT22;59593;51.716;7.016;2023-05-10T05:01:32;13.90;99.90
71754;DHT22;59593;51.716;7.016;2023-05-10T05:03:57;13.80;99.90
71754;DHT22;59593;51.716;7.016;2023-05-10T05:06:23;13.80;99.90
71754;DHT22;59593;51.716;7.016;2023-05-10T05:08:50;13.70;99.90
71754;DHT22;59593;51.716;7.016;2023-05-10T05:11:17;13.70;99.90
71754;DHT22;59593;51.716;7.016;2023-05-10T05:13:42;13.80;99.90
71754;DHT22;59593;51.716;7.016;2023-05-10T05:16:08;13.80;99.90
71754;DHT22;59593;51.716;7.016;2023-05-10T05:18:34;13.80;99.90
71754;DHT22;59593;51.716;7.016;2023-05-10T05:21:00;13.80;99.90
71754;DHT22;59593;51.716;7.016;2023-05-10T05:23:26;13.70;99.90
71754;DHT22;59593;51.716;7.016;2023-05-10T05:25:52;13.70;99.90
71754;DHT22;59593;51.716;7.016;2023-05-10T05:28:19;13.80;99.90
71754;DHT22;59593;51.716;7.016;2023-05-10T05:30:45;13.80;99.90
71754;DHT22;59593;51.716;7.016;2023-05-10T05:33:12;13.80;99.90
71754;DHT22;59593;51.716;7.016;2023-05-10T05:35:38;13.80;99.90
71754;DHT22;59593;51.716;7.016;2023-05-10T05:38:04;13.80;99.90
71754;DHT22;59593;51.716;7.016;2023-05-10T05:40:29;13.80;99.90
71754;DHT22;59593;51.716;7.016;2023-05-10T05:42:55;13.70;99.90
71754;DHT22;59593;51.716;7.016;2023-05-10T05:45:20;13.60;99.90
71754;DHT22;59593;51.716;7.016;2023-05-10T05:47:46;13.80;99.90
71754;DHT22;59593;51.716;7.016;2023-05-10T05:50:12;13.80;99.90
71754;DHT22;59593;51.716;7.016;2023-05-10T05:52:38;13.70;99.90
71754;DHT22;59593;51.716;7.016;2023-05-10T05:55:03;13.70;99.90
71754;DHT22;59593;51.716;7.016;2023-05-10T05:57:29;13.80;99.90
71754;DHT22;59593;51.716;7.016;2023-05-10T05:59:55;13.80;99.90
71754;DHT22;59593;51.716;7.016;2023-05-10T06:02:21;13.80;99.90
71754;DHT22;59593;51.716;7.016;2023-05-10T06:04:46;13.80;99.90
71754;DHT22;59593;51.716;7.016;2023-05-10T06:07:12;13.90;99.90
71754;DHT22;59593;51.716;7.016;2023-05-10T06:09:38;13.90;99.90
71754;DHT22;59593;51.716;7.016;2023-05-10T06:12:03;13.90;99.90
71754;DHT22;59593;51.716;7.016;2023-05-10T06:14:29;13.90;99.90
71754;DHT22;59593;51.716;7.016;2023-05-10T06:16:55;13.80;99.90
71754;DHT22;59593;51.716;7.016;2023-05-10T06:19:21;13.90;99.90
71754;DHT22;59593;51.716;7.016;2023-05-10T06:21:46;14.00;99.90
71754;DHT22;59593;51.716;7.016;2023-05-10T06:24:12;14.10;99.90
71754;DHT22;59593;51.716;7.016;2023-05-10T06:26:38;14.20;99.90
71754;DHT22;59593;51.716;7.016;2023-05-10T06:29:04;14.20;99.90
71754;DHT22;59593;51.716;7.016;2023-05-10T06:31:29;14.30;99.90
71754;DHT22;59593;51.716;7.016;2023-05-10T06:33:55;14.30;99.90
71754;DHT22;59593;51.716;7.016;2023-05-10T06:36:21;14.30;99.90
71754;DHT22;59593;51.716;7.016;2023-05-10T06:38:47;14.50;99.90
71754;DHT22;59593;51.716;7.016;2023-05-10T06:41:12;14.50;99.90
71754;DHT22;59593;51.716;7.016;2023-05-10T06:43:38;14.50;99.90
71754;DHT22;59593;51.716;7.016;2023-05-10T06:46:06;14.50;99.90
71754;DHT22;59593;51.716;7.016;2023-05-10T06:48:32;14.60;99.90
71754;DHT22;59593;51.716;7.016;2023-05-10T06:50:58;14.60;99.90
71754;DHT22;59593;51.716;7.016;2023-05-10T06:53:23;14.70;99.90
71754;DHT22;59593;51.716;7.016;2023-05-10T06:55:49;14.80;99.90
71754;DHT22;59593;51.716;7.016;2023-05-10T06:58:15;14.70;99.90
71754;DHT22;59593;51.716;7.016;2023-05-10T07:00:43;14.70;99.90
71754;DHT22;59593;51.716;7.016;2023-05-10T07:03:10;14.80;99.90
71754;DHT22;59593;51.716;7.016;2023-05-10T07:05:36;14.90;99.90
71754;DHT22;59593;51.716;7.016;2023-05-10T07:08:02;15.00;99.90
71754;DHT22;59593;51.716;7.016;2023-05-10T07:10:27;15.10;99.90
71754;DHT22;59593;51.716;7.016;2023-05-10T07:12:53;15.10;99.90
71754;DHT22;59593;51.716;7.016;2023-05-10T07:15:18;15.20;99.90
71754;DHT22;59593;51.716;7.016;2023-05-10T07:17:44;15.50;99.90
71754;DHT22;59593;51.716;7.016;2023-05-10T07:20:11;15.70;99.90
71754;DHT22;59593;51.716;7.016;2023-05-10T07:22:37;15.90;99.90
71754;DHT22;59593;51.716;7.016;2023-05-10T07:25:06;16.00;99.90
71754;DHT22;59593;51.716;7.016;2023-05-10T07:27:32;16.00;99.90
71754;DHT22;59593;51.716;7.016;2023-05-10T07:29:57;15.90;99.90
71754;DHT22;59593;51.716;7.016;2023-05-10T07:32:23;15.90;99.90
71754;DHT22;59593;51.716;7.016;2023-05-10T07:34:49;15.90;99.90
71754;DHT22;59593;51.716;7.016;2023-05-10T07:37:15;15.80;99.90
71754;DHT22;59593;51.716;7.016;2023-05-10T07:39:40;15.70;99.90
71754;DHT22;59593;51.716;7.016;2023-05-10T07:42:06;15.60;99.90
71754;DHT22;59593;51.716;7.016;2023-05-10T07:44:31;15.50;99.90
71754;DHT22;59593;51.716;7.016;2023-05-10T07:46:57;15.60;99.90
71754;DHT22;59593;51.716;7.016;2023-05-10T07:49:22;15.60;99.90
71754;DHT22;59593;51.716;7.016;2023-05-10T07:51:51;15.60;99.90
71754;DHT22;59593;51.716;7.016;2023-05-10T07:54:17;15.80;99.90
71754;DHT22;59593;51.716;7.016;2023-05-10T07:56:42;15.80;99.90
71754;DHT22;59593;51.716;7.016;2023-05-10T07:59:15;15.80;99.90
71754;DHT22;59593;51.716;7.016;2023-05-10T08:01:42;15.80;99.90
71754;DHT22;59593;51.716;7.016;2023-05-10T08:04:08;15.90;99.90
71754;DHT22;59593;51.716;7.016;2023-05-10T08:06:34;16.10;99.90
71754;DHT22;59593;51.716;7.016;2023-05-10T08:09:00;16.10;99.90
71754;DHT22;59593;51.716;7.016;2023-05-10T08:11:25;16.20;99.90
71754;DHT22;59593;51.716;7.016;2023-05-10T08:13:53;16.20;99.90
71754;DHT22;59593;51.716;7.016;2023-05-10T08:16:18;16.20;99.90
71754;DHT22;59593;51.716;7.016;2023-05-10T08:18:45;16.40;99.90
71754;DHT22;59593;51.716;7.016;2023-05-10T08:21:12;16.70;99.90
71754;DHT22;59593;51.716;7.016;2023-05-10T08:23:37;16.80;99.90
71754;DHT22;59593;51.716;7.016;2023-05-10T08:26:03;16.70;99.90
71754;DHT22;59593;51.716;7.016;2023-05-10T08:28:29;16.70;99.90
71754;DHT22;59593;51.716;7.016;2023-05-10T08:30:55;16.80;99.90
71754;DHT22;59593;51.716;7.016;2023-05-10T08:33:20;16.80;99.90
71754;DHT22;59593;51.716;7.016;2023-05-10T08:35:46;16.70;99.90
71754;DHT22;59593;51.716;7.016;2023-05-10T08:38:12;16.60;99.90
71754;DHT22;59593;51.716;7.016;2023-05-10T08:40:43;16.50;99.90
71754;DHT22;59593;51.716;7.016;2023-05-10T08:43:12;16.50;99.90
71754;DHT22;59593;51.716;7.016;2023-05-10T08:45:39;16.40;99.90
71754;DHT22;59593;51.716;7.016;2023-05-10T08:48:07;16.30;99.90
71754;DHT22;59593;51.716;7.016;2023-05-10T08:50:40;16.40;99.90
71754;DHT22;59593;51.716;7.016;2023-05-10T08:53:10;16.50;99.90
71754;DHT22;59593;51.716;7.016;2023-05-10T08:55:37;16.70;99.90
71754;DHT22;59593;51.716;7.016;2023-05-10T08:58:04;16.60;99.90
71754;DHT22;59593;51.716;7.016;2023-05-10T09:00:31;16.60;99.90
71754;DHT22;59593;51.716;7.016;2023-05-10T09:02:58;16.50;99.90
71754;DHT22;59593;51.716;7.016;2023-05-10T09:05:24;16.70;99.90
71754;DHT22;59593;51.716;7.016;2023-05-10T09:07:50;16.80;99.90
71754;DHT22;59593;51.716;7.016;2023-05-10T09:10:16;16.50;99.90
71754;DHT22;59593;51.716;7.016;2023-05-10T09:12:41;16.40;99.90
71754;DHT22;59593;51.716;7.016;2023-05-10T09:15:09;16.40;99.90
71754;DHT22;59593;51.716;7.016;2023-05-10T09:17:39;16.20;99.90
71754;DHT22;59593;51.716;7.016;2023-05-10T09:20:06;16.10;99.90
71754;DHT22;59593;51.716;7.016;2023-05-10T09:22:33;16.00;99.90
71754;DHT22;59593;51.716;7.016;2023-05-10T09:25:11;16.10;99.90
71754;DHT22;59593;51.716;7.016;2023-05-10T09:27:38;16.10;99.90
71754;DHT22;59593;51.716;7.016;2023-05-10T09:30:05;16.30;99.90
71754;DHT22;59593;51.716;7.016;2023-05-10T09:32:42;16.50;99.90
71754;DHT22;59593;51.716;7.016;2023-05-10T09:35:11;16.60;99.90
71754;DHT22;59593;51.716;7.016;2023-05-10T09:37:38;16.50;99.90
71754;DHT22;59593;51.716;7.016;2023-05-10T09:40:07;16.50;99.90
71754;DHT22;59593;51.716;7.016;2023-05-10T09:42:34;16.20;99.90
71754;DHT22;59593;51.716;7.016;2023-05-10T09:45:09;16.10;99.90
71754;DHT22;59593;51.716;7.016;2023-05-10T09:47:35;16.10;99.90
71754;DHT22;59593;51.716;7.016;2023-05-10T09:50:02;16.10;99.90
71754;DHT22;59593;51.716;7.016;2023-05-10T09:52:52;15.90;99.90
71754;DHT22;59593;51.716;7.016;2023-05-10T09:55:23;15.80;99.90
71754;DHT22;59593;51.716;7.016;2023-05-10T09:57:59;15.70;99.90
71754;DHT22;59593;51.716;7.016;2023-05-10T10:00:26;15.80;99.90
71754;DHT22;59593;51.716;7.016;2023-05-10T10:02:57;15.90;99.90
71754;DHT22;59593;51.716;7.016;2023-05-10T10:05:44;16.00;99.90
71754;DHT22;59593;51.716;7.016;2023-05-10T10:08:10;16.00;99.90
71754;DHT22;59593;51.716;7.016;2023-05-10T10:10:36;16.10;99.90
71754;DHT22;59593;51.716;7.016;2023-05-10T10:13:02;16.30;99.90
71754;DHT22;59593;51.716;7.016;2023-05-10T10:15:28;16.30;99.90
71754;DHT22;59593;51.716;7.016;2023-05-10T10:17:54;16.20;99.90
71754;DHT22;59593;51.716;7.016;2023-05-10T10:20:21;16.20;99.90
71754;DHT22;59593;51.716;7.016;2023-05-10T10:22:48;16.30;99.90
71754;DHT22;59593;51.716;7.016;2023-05-10T10:25:15;16.10;99.90
71754;DHT22;59593;51.716;7.016;2023-05-10T10:27:49;16.00;99.90
71754;DHT22;59593;51.716;7.016;2023-05-10T10:30:36;16.00;99.90
71754;DHT22;59593;51.716;7.016;2023-05-10T10:35:52;16.10;99.90
71754;DHT22;59593;51.716;7.016;2023-05-10T10:38:21;16.10;99.90
71754;DHT22;59593;51.716;7.016;2023-05-10T10:40:48;16.10;99.90
71754;DHT22;59593;51.716;7.016;2023-05-10T10:43:25;16.00;99.90
71754;DHT22;59593;51.716;7.016;2023-05-10T10:46:18;16.10;99.90
71754;DHT22;59593;51.716;7.016;2023-05-10T10:49:08;16.30;99.90
71754;DHT22;59593;51.716;7.016;2023-05-10T10:55:16;16.40;99.90
71754;DHT22;59593;51.716;7.016;2023-05-10T10:57:45;16.50;99.90
71754;DHT22;59593;51.716;7.016;2023-05-10T11:02:54;16.80;99.90
71754;DHT22;59593;51.716;7.016;2023-05-10T11:07:57;17.00;99.90
71754;DHT22;59593;51.716;7.016;2023-05-10T11:10:24;17.20;99.90
71754;DHT22;59593;51.716;7.016;2023-05-10T11:13:08;17.20;99.90
71754;DHT22;59593;51.716;7.016;2023-05-10T11:15:36;17.00;99.90
71754;DHT22;59593;51.716;7.016;2023-05-10T11:18:23;16.90;99.90
71754;DHT22;59593;51.716;7.016;2023-05-10T11:21:01;16.90;99.90
71754;DHT22;59593;51.716;7.016;2023-05-10T11:23:55;17.00;99.90
71754;DHT22;59593;51.716;7.016;2023-05-10T11:26:22;16.90;99.90
71754;DHT22;59593;51.716;7.016;2023-05-10T11:28:51;16.70;99.90
71754;DHT22;59593;51.716;7.016;2023-05-10T11:31:18;16.40;99.90
71754;DHT22;59593;51.716;7.016;2023-05-10T11:33:44;16.20;99.90
71754;DHT22;59593;51.716;7.016;2023-05-10T11:36:36;16.30;99.90
71754;DHT22;59593;51.716;7.016;2023-05-10T11:39:02;16.30;99.90
71754;DHT22;59593;51.716;7.016;2023-05-10T11:41:29;16.30;99.90
71754;DHT22;59593;51.716;7.016;2023-05-10T11:43:56;16.40;99.90
71754;DHT22;59593;51.716;7.016;2023-05-10T11:46:24;16.40;99.90
71754;DHT22;59593;51.716;7.016;2023-05-10T11:48:51;16.60;99.90
71754;DHT22;59593;51.716;7.016;2023-05-10T11:51:25;16.60;99.90
71754;DHT22;59593;51.716;7.016;2023-05-10T11:53:53;16.70;99.90
71754;DHT22;59593;51.716;7.016;2023-05-10T11:56:19;16.60;99.90
71754;DHT22;59593;51.716;7.016;2023-05-10T11:58:55;16.50;99.90
71754;DHT22;59593;51.716;7.016;2023-05-10T12:01:22;16.80;99.90
71754;DHT22;59593;51.716;7.016;2023-05-10T12:03:49;17.00;99.90
71754;DHT22;59593;51.716;7.016;2023-05-10T12:06:15;17.40;99.90
71754;DHT22;59593;51.716;7.016;2023-05-10T12:08:45;17.80;99.90
71754;DHT22;59593;51.716;7.016;2023-05-10T12:11:12;18.00;99.90
71754;DHT22;59593;51.716;7.016;2023-05-10T12:13:43;18.10;99.90
71754;DHT22;59593;51.716;7.016;2023-05-10T12:16:20;18.30;99.90
71754;DHT22;59593;51.716;7.016;2023-05-10T12:18:50;18.40;99.90
71754;DHT22;59593;51.716;7.016;2023-05-10T12:21:16;18.60;99.90
71754;DHT22;59593;51.716;7.016;2023-05-10T12:23:42;18.40;99.90
71754;DHT22;59593;51.716;7.016;2023-05-10T12:26:10;18.30;99.90
71754;DHT22;59593;51.716;7.016;2023-05-10T12:28:37;18.10;99.90
71754;DHT22;59593;51.716;7.016;2023-05-10T12:31:05;17.90;99.90
71754;DHT22;59593;51.716;7.016;2023-05-10T12:33:38;18.00;99.90
71754;DHT22;59593;51.716;7.016;2023-05-10T12:36:05;18.30;99.90
71754;DHT22;59593;51.716;7.016;2023-05-10T12:38:41;18.70;99.90
71754;DHT22;59593;51.716;7.016;2023-05-10T12:41:14;18.80;99.90
71754;DHT22;59593;51.716;7.016;2023-05-10T12:43:40;18.70;99.90
71754;DHT22;59593;51.716;7.016;2023-05-10T12:48:32;18.80;99.90
71754;DHT22;59593;51.716;7.016;2023-05-10T12:50:59;18.80;99.90
71754;DHT22;59593;51.716;7.016;2023-05-10T12:53:25;18.70;99.90
71754;DHT22;59593;51.716;7.016;2023-05-10T12:55:51;18.70;99.90
71754;DHT22;59593;51.716;7.016;2023-05-10T12:58:19;18.40;99.90
71754;DHT22;59593;51.716;7.016;2023-05-10T13:00:45;18.50;99.90
71754;DHT22;59593;51.716;7.016;2023-05-10T13:03:11;18.80;99.90
71754;DHT22;59593;51.716;7.016;2023-05-10T13:05:37;18.80;99.90
71754;DHT22;59593;51.716;7.016;2023-05-10T13:08:03;18.80;99.90
71754;DHT22;59593;51.716;7.016;2023-05-10T13:10:31;19.20;99.90
71754;DHT22;59593;51.716;7.016;2023-05-10T13:12:58;19.80;99.90
71754;DHT22;59593;51.716;7.016;2023-05-10T13:15:24;19.80;99.90
71754;DHT22;59593;51.716;7.016;2023-05-10T13:17:49;19.70;99.90
71754;DHT22;59593;51.716;7.016;2023-05-10T13:20:15;19.90;99.90
71754;DHT22;59593;51.716;7.016;2023-05-10T13:22:42;19.50;99.90
71754;DHT22;59593;51.716;7.016;2023-05-10T13:25:08;19.10;99.90
71754;DHT22;59593;51.716;7.016;2023-05-10T13:27:34;18.90;99.90
71754;DHT22;59593;51.716;7.016;2023-05-10T13:29:59;18.70;99.90
71754;DHT22;59593;51.716;7.016;2023-05-10T13:32:26;18.80;99.90
71754;DHT22;59593;51.716;7.016;2023-05-10T13:34:52;18.60;99.90
71754;DHT22;59593;51.716;7.016;2023-05-10T13:37:17;18.70;99.90
71754;DHT22;59593;51.716;7.016;2023-05-10T13:39:43;19.10;99.90
71754;DHT22;59593;51.716;7.016;2023-05-10T13:42:09;19.00;99.90
71754;DHT22;59593;51.716;7.016;2023-05-10T13:44:34;18.70;99.90
71754;DHT22;59593;51.716;7.016;2023-05-10T13:47:01;18.10;99.90
71754;DHT22;59593;51.716;7.016;2023-05-10T13:49:27;17.50;99.90
71754;DHT22;59593;51.716;7.016;2023-05-10T13:51:53;17.40;99.90
71754;DHT22;59593;51.716;7.016;2023-05-10T13:54:19;17.30;99.90
71754;DHT22;59593;51.716;7.016;2023-05-10T13:56:45;17.50;99.90
71754;DHT22;59593;51.716;7.016;2023-05-10T13:59:12;18.20;99.90
71754;DHT22;59593;51.716;7.016;2023-05-10T14:01:42;18.60;99.90
71754;DHT22;59593;51.716;7.016;2023-05-10T14:04:08;19.10;99.90
71754;DHT22;59593;51.716;7.016;2023-05-10T14:06:37;19.00;99.90
71754;DHT22;59593;51.716;7.016;2023-05-10T14:09:03;18.90;99.90
71754;DHT22;59593;51.716;7.016;2023-05-10T14:11:28;18.70;99.90
71754;DHT22;59593;51.716;7.016;2023-05-10T14:13:54;18.80;99.90
71754;DHT22;59593;51.716;7.016;2023-05-10T14:16:20;18.60;99.90
71754;DHT22;59593;51.716;7.016;2023-05-10T14:18:46;18.30;99.90
71754;DHT22;59593;51.716;7.016;2023-05-10T14:21:12;18.20;99.90
71754;DHT22;59593;51.716;7.016;2023-05-10T14:23:38;18.10;99.90
71754;DHT22;59593;51.716;7.016;2023-05-10T14:26:04;17.80;99.90
71754;DHT22;59593;51.716;7.016;2023-05-10T14:28:29;17.90;99.90
71754;DHT22;59593;51.716;7.016;2023-05-10T14:30:55;17.80;99.90
71754;DHT22;59593;51.716;7.016;2023-05-10T14:33:20;17.70;99.90
71754;DHT22;59593;51.716;7.016;2023-05-10T14:35:46;17.80;99.90
71754;DHT22;59593;51.716;7.016;2023-05-10T14:38:13;18.10;99.90
71754;DHT22;59593;51.716;7.016;2023-05-10T14:40:38;18.40;99.90
71754;DHT22;59593;51.716;7.016;2023-05-10T14:43:04;18.50;99.90
71754;DHT22;59593;51.716;7.016;2023-05-10T14:45:30;18.40;99.90
71754;DHT22;59593;51.716;7.016;2023-05-10T14:47:56;18.60;99.90
71754;DHT22;59593;51.716;7.016;2023-05-10T14:50:22;18.70;99.90
71754;DHT22;59593;51.716;7.016;2023-05-10T14:52:48;18.80;99.90
71754;DHT22;59593;51.716;7.016;2023-05-10T14:55:14;18.90;99.90
71754;DHT22;59593;51.716;7.016;2023-05-10T14:57:40;19.40;99.90
71754;DHT22;59593;51.716;7.016;2023-05-10T15:00:06;19.30;99.90
71754;DHT22;59593;51.716;7.016;2023-05-10T15:02:32;19.10;99.90
71754;DHT22;59593;51.716;7.016;2023-05-10T15:04:57;19.10;99.90
71754;DHT22;59593;51.716;7.016;2023-05-10T15:07:23;19.30;99.90
71754;DHT22;59593;51.716;7.016;2023-05-10T15:09:50;19.20;99.90
71754;DHT22;59593;51.716;7.016;2023-05-10T15:12:17;19.00;99.90
71754;DHT22;59593;51.716;7.016;2023-05-10T15:14:43;18.80;99.90
71754;DHT22;59593;51.716;7.016;2023-05-10T15:17:08;18.60;99.90
71754;DHT22;59593;51.716;7.016;2023-05-10T15:19:34;18.50;99.90
71754;DHT22;59593;51.716;7.016;2023-05-10T15:22:00;18.70;99.90
71754;DHT22;59593;51.716;7.016;2023-05-10T15:24:25;18.50;99.90
71754;DHT22;59593;51.716;7.016;2023-05-10T15:26:51;18.40;99.90
71754;DHT22;59593;51.716;7.016;2023-05-10T15:29:16;18.40;99.90
71754;DHT22;59593;51.716;7.016;2023-05-10T15:31:49;18.60;99.90
71754;DHT22;59593;51.716;7.016;2023-05-10T15:34:16;18.70;99.90
71754;DHT22;59593;51.716;7.016;2023-05-10T15:36:42;19.00;99.90
71754;DHT22;59593;51.716;7.016;2023-05-10T15:39:07;19.50;99.90
71754;DHT22;59593;51.716;7.016;2023-05-10T15:41:34;19.40;99.90
71754;DHT22;59593;51.716;7.016;2023-05-10T15:44:00;19.50;99.90
71754;DHT22;59593;51.716;7.016;2023-05-10T15:46:27;19.20;99.90
71754;DHT22;59593;51.716;7.016;2023-05-10T15:48:53;19.00;99.90
71754;DHT22;59593;51.716;7.016;2023-05-10T15:51:18;18.80;99.90
71754;DHT22;59593;51.716;7.016;2023-05-10T15:53:44;19.10;99.90
71754;DHT22;59593;51.716;7.016;2023-05-10T15:56:10;19.30;99.90
71754;DHT22;59593;51.716;7.016;2023-05-10T15:58:37;19.00;99.90
71754;DHT22;59593;51.716;7.016;2023-05-10T16:01:03;18.80;99.90
71754;DHT22;59593;51.716;7.016;2023-05-10T16:03:30;18.60;99.90
71754;DHT22;59593;51.716;7.016;2023-05-10T16:05:56;18.50;99.90